This is the latest recevied weather packets stored in our database for station/object WX5KDM. If no packets are shown the sender has not sent any weather packets the latest 1 day(s).
| Time | Temp. | Humidity | Pressure | Rain* | Wind** | Luminosity | Snow |
|---|---|---|---|---|---|---|---|
| 1836274772 | 21.11° C | 95% | 1018.8 hPa | 0 mm | 0 m/s | - | - |
| 1836274470 | 21.11° C | 95% | 1018.7 hPa | 0 mm | 0 m/s | - | - |
| 1836274324 | 20.56° C | 95% | 1018.7 hPa | 0 mm | 0 m/s | - | - |
| 1836274169 | 21.11° C | 95% | 1018.7 hPa | 0 mm | 0 m/s | - | - |
| 1836273869 | 21.11° C | 95% | 1018.6 hPa | 0 mm | 0 m/s | - | - |
| 1778051066 | 22.22° C | 84% | 1008.9 hPa | 0 mm | 1.34 m/s, 204° | - | - |
| 1778050764 | 22.22° C | 84% | 1008.9 hPa | 0 mm | 2.68 m/s, 182° | - | - |
| 1778050461 | 22.22° C | 83% | 1008.9 hPa | 0 mm | 1.34 m/s, 195° | - | - |
| 1778050157 | 22.22° C | 83% | 1008.9 hPa | 0 mm | 1.34 m/s, 229° | - | - |
| 1778049853 | 22.22° C | 83% | 1008.8 hPa | 0 mm | 0.89 m/s, 245° | - | - |
| 1778049551 | 22.22° C | 83% | 1008.8 hPa | 0 mm | 1.34 m/s, 192° | - | - |
| 1778049248 | 22.22° C | 82% | 1008.9 hPa | 0 mm | 2.68 m/s, 202° | - | - |
| 1778048946 | 22.22° C | 82% | 1009.2 hPa | 0 mm | 0.89 m/s, 258° | - | - |
| 1778048644 | 22.22° C | 82% | 1009.3 hPa | 0 mm | 1.79 m/s, 284° | - | - |
| 1778048340 | 22.22° C | 82% | 1009.2 hPa | 0 mm | 2.24 m/s, 190° | - | - |
| 1778048036 | 22.22° C | 82% | 1009 hPa | 0 mm | 1.34 m/s, 261° | - | - |
| 1778047735 | 22.22° C | 82% | 1009.2 hPa | 0 mm | 0.89 m/s, 191° | - | - |
| 1778047432 | 22.22° C | 81% | 1009.2 hPa | 0 mm | 0.45 m/s, 220° | - | - |
| 1778047129 | 22.22° C | 81% | 1008.7 hPa | 0 mm | 1.34 m/s, 182° | - | - |
| 1778046826 | 22.22° C | 81% | 1008.6 hPa | 0 mm | 2.68 m/s, 135° | - | - |
| 1778046523 | 22.22° C | 80% | 1009 hPa | 0 mm | 0.45 m/s, 232° | - | - |
| 1778046220 | 22.22° C | 80% | 1009.1 hPa | 0 mm | 0.89 m/s, 219° | - | - |
| 1778045916 | 22.22° C | 80% | 1009 hPa | 0 mm | 0.89 m/s, 211° | - | - |
| 1778045615 | 22.22° C | 80% | 1009.5 hPa | 0 mm | 0.45 m/s, 220° | - | - |
| 1778045313 | 22.22° C | 80% | 1009.6 hPa | 0 mm | 0.89 m/s, 218° | - | - |
* Rain latest hour (hover to see other rain measurements)
** Current wind speed in m/s (hover to see current wind gust speed)